WetterOnline ( http://www.wetteronline.de )

Wetter aktuell Schwerin

Aktuelles Wetter: Schwerin (68m)

6-stündlich | Neueste Meldungen
Ortszeit Temperatur Wetter
Mi, 18.07. 8:00 16.9° C leicht bewölkt
Mi, 18.07. 2:00 19.3° C wolkig
Di, 17.07. 20:00 27.0° C leicht bewölkt
Di, 17.07. 14:00 27.0° C leicht bewölkt
Di, 17.07. 8:00 21.1° C wolkenlos
Di, 17.07. 2:00 17.0° C wolkenlos
Mo, 16.07. 20:00 25.0° C wolkenlos
Mo, 16.07. 14:00 25.7° C wolkenlos
Ortszeit Temperatur Wetter
Mi, 18.07. 12:30 21.9° C wolkig
Mi, 18.07. 12:10 22.1° C wolkig
Mi, 18.07. 12:00 21.9° C wolkig
Mi, 18.07. 11:50 21.9° C wolkig
Mi, 18.07. 11:40 21.3° C wolkig
Mi, 18.07. 11:30 21.0° C bewölkt
Mi, 18.07. 11:00 20.1° C bewölkt
Mi, 18.07. 10:30 19.3° C wolkig
Mi, 18.07. 10:00 18.6° C wolkig
Mi, 18.07. 9:30 18.3° C wolkig
Ortszeit Relative Feuchte Sichtweite
Mi, 18.07. 8:00 80% 17 km
Mi, 18.07. 2:00 70% 20 km
Di, 17.07. 20:00 36% 35 km
Di, 17.07. 14:00 41% 24 km
Di, 17.07. 8:00 80% 9 km
Di, 17.07. 2:00 90% 11 km
Mo, 16.07. 20:00 45% 30 km
Mo, 16.07. 14:00 43% 23 km
Ortszeit Relative Feuchte Sichtweite
Mi, 18.07. 12:30 57% 29 km
Mi, 18.07. 12:10 55% -
Mi, 18.07. 12:00 57% 17 km
Mi, 18.07. 11:50 57% -
Mi, 18.07. 11:40 58% -
Mi, 18.07. 11:30 63% 25 km
Mi, 18.07. 11:00 67% 18 km
Mi, 18.07. 10:30 70% 19 km
Mi, 18.07. 10:00 74% 19 km
Mi, 18.07. 9:30 75% 20 km
Ortszeit Niederschlagsmenge Niederschlagsart
Mi, 18.07. 8:00 0.0 l/m2 in 12 Std. -
Mi, 18.07. 2:00 0.0 l/m2 in 6 Std. -
Di, 17.07. 20:00 0.0 l/m2 in 12 Std. -
Di, 17.07. 14:00 0.0 l/m2 in 6 Std. -
Di, 17.07. 8:00 0.0 l/m2 in 12 Std. -
Di, 17.07. 2:00 0.0 l/m2 in 6 Std. -
Mo, 16.07. 20:00 0.0 l/m2 in 12 Std. -
Mo, 16.07. 14:00 0.0 l/m2 in 6 Std. -
Ortszeit Niederschlagsmenge Niederschlagsart
Mi, 18.07. 12:30 0.0 l/m2 in 1 Std. -
Mi, 18.07. 12:10 keine Meldung -
Mi, 18.07. 12:00 0.0 l/m2 in 1 Std. -
Mi, 18.07. 11:50 keine Meldung -
Mi, 18.07. 11:40 keine Meldung -
Mi, 18.07. 11:30 0.0 l/m2 in 1 Std. -
Mi, 18.07. 11:00 0.0 l/m2 in 1 Std. -
Mi, 18.07. 10:30 0.0 l/m2 in 1 Std. -
Mi, 18.07. 10:00 0.0 l/m2 in 1 Std. -
Mi, 18.07. 9:30 0.0 l/m2 in 1 Std. -
Ortszeit Stärke Spitze Richtung
km/h Bft. km/h Grad Sektor
Mi, 18.07. 8:00 15 3 28 290° W
Mi, 18.07. 2:00 14 3 29 320° NW
Di, 17.07. 20:00 7 2 32 50° NO
Di, 17.07. 14:00 14 3 29 70° O
Di, 17.07. 8:00 0 0 11 - -
Di, 17.07. 2:00 6 1 19 10° N
Mo, 16.07. 20:00 11 2 25 10° N
Mo, 16.07. 14:00 11 2 22 50° NO
Ortszeit Stärke Spitze Richtung
km/h Bft. km/h Grad Sektor
Mi, 18.07. 12:30 18 3 32 280° W
Mi, 18.07. 12:10 18 3 - 310° NW
Mi, 18.07. 12:00 20 4 33 290° W
Mi, 18.07. 11:50 20 4 - 290° W
Mi, 18.07. 11:40 14 3 - 300° NW
Mi, 18.07. 11:30 15 3 33 310° NW
Mi, 18.07. 11:00 18 3 32 270° W
Mi, 18.07. 10:30 14 3 29 290° W
Mi, 18.07. 10:00 15 3 33 280° W
Mi, 18.07. 9:30 19 3 33 300° NW
Ortszeit Untergrenze Bedeckung Gattung
total tief tief mittel hoch
Mi, 18.07. 8:00 3600 m 6/8 1/8 - - -
Mi, 18.07. 2:00 3300 m 7/8 1/8 - - -
Di, 17.07. 20:00 9000 m 5/8 0/8 - - -
Di, 17.07. 14:00 10500 m 4/8 0/8 - - -
Di, 17.07. 8:00 9000 m 0/8 0/8 - - -
Di, 17.07. 2:00 - 0/8 0/8 - - -
Mo, 16.07. 20:00 - 0/8 0/8 - - -
Mo, 16.07. 14:00 - 0/8 0/8 - - -
Ortszeit Bedeckungsgrad in Achtel und Wolkenuntergrenze
Mi, 18.07. 12:30 4(1050m) 7(10500m)
Mi, 18.07. 12:10 3(1020m) 7(10500m)
Mi, 18.07. 12:00 5(960m) 7(9000m) 7(10500m)
Mi, 18.07. 11:50 5(960m) 7(9000m) 7(10500m)
Mi, 18.07. 11:40 3(930m) 7(9000m) 8(9000m)
Mi, 18.07. 11:30 4(840m) 5(1380m) 8(9000m)
Mi, 18.07. 11:00 7(720m) 9 9
Mi, 18.07. 10:30 4(600m) 7(9000m)
Mi, 18.07. 10:00 5(510m) 7(9000m) 7(9000m)
Mi, 18.07. 9:30 2(480m) 7(9000m)
Ortszeit Luftdruck NN (hPa) Tendenz (hPa in 3 Std.)
Mi, 18.07. 8:00 1015 + 0,8
Mi, 18.07. 2:00 1014 + 1,0
Di, 17.07. 20:00 1012 0,0
Di, 17.07. 14:00 1012 - 0,5
Di, 17.07. 8:00 1013 + 0,1
Di, 17.07. 2:00 1013 0,0
Mo, 16.07. 20:00 1013 - 0,5
Mo, 16.07. 14:00 1015 - 0,7
Ortszeit Luftdruck NN (hPa) Tendenz (hPa in 3 Std.)
Mi, 18.07. 12:30 1016 - 0,1
Mi, 18.07. 12:10 1016 keine Meldung
Mi, 18.07. 12:00 1016 + 0,2
Mi, 18.07. 11:50 1016 keine Meldung
Mi, 18.07. 11:40 1016 keine Meldung
Mi, 18.07. 11:30 1016 + 0,4
Mi, 18.07. 11:00 1016 + 0,6
Mi, 18.07. 10:30 1016 + 0,5
Mi, 18.07. 10:00 1016 + 0,7
Mi, 18.07. 9:30 1016 + 0,9
Ortszeit Schneehöhe (cm)
Mi, 18.07. 8:00 -
Mi, 18.07. 2:00 -
Di, 17.07. 20:00 -
Di, 17.07. 14:00 -
Di, 17.07. 8:00 -
Di, 17.07. 2:00 -
Mo, 16.07. 20:00 -
Mo, 16.07. 14:00 -
Ortszeit Schneehöhe (cm)
Mi, 18.07. 12:30 -
Mi, 18.07. 12:10 -
Mi, 18.07. 12:00 -
Mi, 18.07. 11:50 -
Mi, 18.07. 11:40 -
Mi, 18.07. 11:30 -
Mi, 18.07. 11:00 -
Mi, 18.07. 10:30 -
Mi, 18.07. 10:00 -
Mi, 18.07. 9:30 -
Link zu dieser Seite / Seite empfehlen

Das Wetter in ...